sensor_id;sensor_type;location;lat;lon;timestamp;pressure;altitude;pressure_sealevel;temperature;humidity
44734;BME280;30462;52.446;-1.930;2023-02-15T00:00:19;101173.2188;;;;
44734;BME280;30462;52.446;-1.930;2023-02-15T00:01:18;101168.7305;;;;
44734;BME280;30462;52.446;-1.930;2023-02-15T00:02:18;101168.2891;;;;
44734;BME280;30462;52.446;-1.930;2023-02-15T00:03:18;101166.0625;;;;
44734;BME280;30462;52.446;-1.930;2023-02-15T00:04:19;101168.4727;;;;
44734;BME280;30462;52.446;-1.930;2023-02-15T00:05:18;101166.9492;;;;
44734;BME280;30462;52.446;-1.930;2023-02-15T00:06:18;101166.7383;;;;
44734;BME280;30462;52.446;-1.930;2023-02-15T00:07:18;101166.4258;;;;
44734;BME280;30462;52.446;-1.930;2023-02-15T00:08:18;101165.2227;;;;
44734;BME280;30462;52.446;-1.930;2023-02-15T00:09:18;101164.4648;;;;
44734;BME280;30462;52.446;-1.930;2023-02-15T00:10:18;101159.7148;;;;
44734;BME280;30462;52.446;-1.930;2023-02-15T00:11:18;101154.9688;;;;
44734;BME280;30462;52.446;-1.930;2023-02-15T00:12:18;101158.3438;;;;
44734;BME280;30462;52.446;-1.930;2023-02-15T00:13:18;101156.4844;;;;
44734;BME280;30462;52.446;-1.930;2023-02-15T00:14:18;101158.1133;;;;
44734;BME280;30462;52.446;-1.930;2023-02-15T00:15:18;101153.5352;;;;
44734;BME280;30462;52.446;-1.930;2023-02-15T00:16:18;101154.207;;;;
44734;BME280;30462;52.446;-1.930;2023-02-15T00:17:18;101155.4766;;;;
44734;BME280;30462;52.446;-1.930;2023-02-15T00:18:18;101155.2773;;;;
44734;BME280;30462;52.446;-1.930;2023-02-15T00:19:19;101154.4805;;;;
44734;BME280;30462;52.446;-1.930;2023-02-15T00:20:18;101155.1563;;;;
44734;BME280;30462;52.446;-1.930;2023-02-15T00:21:18;101152.7617;;;;
44734;BME280;30462;52.446;-1.930;2023-02-15T00:22:18;101152.5625;;;;
44734;BME280;30462;52.446;-1.930;2023-02-15T00:23:18;101152.1055;;;;
44734;BME280;30462;52.446;-1.930;2023-02-15T00:24:18;101148.9414;;;;
44734;BME280;30462;52.446;-1.930;2023-02-15T00:25:18;101146.4648;;;;
44734;BME280;30462;52.446;-1.930;2023-02-15T00:26:17;101148.5039;;;;
44734;BME280;30462;52.446;-1.930;2023-02-15T00:27:18;101142.9023;;;;
44734;BME280;30462;52.446;-1.930;2023-02-15T00:28:17;101145.2734;;;;
44734;BME280;30462;52.446;-1.930;2023-02-15T00:29:18;101144.5859;;;;
44734;BME280;30462;52.446;-1.930;2023-02-15T00:30:18;101141.6406;;;;
44734;BME280;30462;52.446;-1.930;2023-02-15T00:31:18;101145.0156;;;;
44734;BME280;30462;52.446;-1.930;2023-02-15T00:32:18;101142.9609;;;;
44734;BME280;30462;52.446;-1.930;2023-02-15T00:33:18;101141.5859;;;;
44734;BME280;30462;52.446;-1.930;2023-02-15T00:34:19;101136.3203;;;;
44734;BME280;30462;52.446;-1.930;2023-02-15T00:35:18;101135.9141;;;;
44734;BME280;30462;52.446;-1.930;2023-02-15T00:36:18;101131.7461;;;;
44734;BME280;30462;52.446;-1.930;2023-02-15T00:37:17;101130.9922;;;;
44734;BME280;30462;52.446;-1.930;2023-02-15T00:38:18;101131.8398;;;;
44734;BME280;30462;52.446;-1.930;2023-02-15T00:39:18;101131.2305;;;;
44734;BME280;30462;52.446;-1.930;2023-02-15T00:40:18;101129.5273;;;;
44734;BME280;30462;52.446;-1.930;2023-02-15T00:41:18;101127.7422;;;;
44734;BME280;30462;52.446;-1.930;2023-02-15T00:42:18;101129.0391;;;;
44734;BME280;30462;52.446;-1.930;2023-02-15T00:43:18;101124.457;;;;
44734;BME280;30462;52.446;-1.930;2023-02-15T00:44:18;101124.2578;;;;
44734;BME280;30462;52.446;-1.930;2023-02-15T00:45:18;101121.0664;;;;
44734;BME280;30462;52.446;-1.930;2023-02-15T00:46:18;101121.7188;;;;
44734;BME280;30462;52.446;-1.930;2023-02-15T00:47:18;101119.6836;;;;
44734;BME280;30462;52.446;-1.930;2023-02-15T00:48:18;101114.8164;;;;
44734;BME280;30462;52.446;-1.930;2023-02-15T00:49:18;101116.1094;;;;
44734;BME280;30462;52.446;-1.930;2023-02-15T00:50:18;101112.1367;;;;
44734;BME280;30462;52.446;-1.930;2023-02-15T00:51:18;101110.3594;;;;
44734;BME280;30462;52.446;-1.930;2023-02-15T00:52:18;101107.5859;;;;
44734;BME280;30462;52.446;-1.930;2023-02-15T00:53:18;101108.2344;;;;
44734;BME280;30462;52.446;-1.930;2023-02-15T00:54:18;101108.5313;;;;
44734;BME280;30462;52.446;-1.930;2023-02-15T00:55:18;101109.3008;;;;
44734;BME280;30462;52.446;-1.930;2023-02-15T00:56:17;101107.5273;;;;
44734;BME280;30462;52.446;-1.930;2023-02-15T00:57:17;101106.3945;;;;
44734;BME280;30462;52.446;-1.930;2023-02-15T00:58:18;101105.4805;;;;
44734;BME280;30462;52.446;-1.930;2023-02-15T00:59:18;101103.6211;;;;
44734;BME280;30462;52.446;-1.930;2023-02-15T01:00:18;101099.0859;;;;
44734;BME280;30462;52.446;-1.930;2023-02-15T01:01:19;101097.2656;;;;
44734;BME280;30462;52.446;-1.930;2023-02-15T01:02:17;101096.8086;;;;
44734;BME280;30462;52.446;-1.930;2023-02-15T01:03:19;101092.9727;;;;
44734;BME280;30462;52.446;-1.930;2023-02-15T01:04:18;101091.3359;;;;
44734;BME280;30462;52.446;-1.930;2023-02-15T01:05:18;101089.7969;;;;
44734;BME280;30462;52.446;-1.930;2023-02-15T01:06:18;101085.0156;;;;
44734;BME280;30462;52.446;-1.930;2023-02-15T01:07:18;101081.9414;;;;
44734;BME280;30462;52.446;-1.930;2023-02-15T01:08:18;101081.1758;;;;
44734;BME280;30462;52.446;-1.930;2023-02-15T01:09:18;101081.293;;;;
44734;BME280;30462;52.446;-1.930;2023-02-15T01:10:18;101077.9414;;;;
44734;BME280;30462;52.446;-1.930;2023-02-15T01:11:19;101074.2539;;;;
44734;BME280;30462;52.446;-1.930;2023-02-15T01:12:18;101078.6719;;;;
44734;BME280;30462;52.446;-1.930;2023-02-15T01:13:18;101075.9453;;;;
44734;BME280;30462;52.446;-1.930;2023-02-15T01:14:18;101070.0742;;;;
44734;BME280;30462;52.446;-1.930;2023-02-15T01:15:18;101069.8984;;;;
44734;BME280;30462;52.446;-1.930;2023-02-15T01:16:18;101067.3477;;;;
44734;BME280;30462;52.446;-1.930;2023-02-15T01:17:18;101070.4297;;;;
44734;BME280;30462;52.446;-1.930;2023-02-15T01:18:18;101067.9453;;;;
44734;BME280;30462;52.446;-1.930;2023-02-15T01:19:18;101067.8711;;;;
44734;BME280;30462;52.446;-1.930;2023-02-15T01:20:18;101063.0078;;;;
44734;BME280;30462;52.446;-1.930;2023-02-15T01:21:19;101066.3359;;;;
44734;BME280;30462;52.446;-1.930;2023-02-15T01:22:18;101062.4023;;;;
44734;BME280;30462;52.446;-1.930;2023-02-15T01:23:18;101065.6133;;;;
44734;BME280;30462;52.446;-1.930;2023-02-15T01:24:18;101061.9063;;;;
44734;BME280;30462;52.446;-1.930;2023-02-15T01:25:19;101057.2773;;;;
44734;BME280;30462;52.446;-1.930;2023-02-15T01:26:18;101057.8867;;;;
44734;BME280;30462;52.446;-1.930;2023-02-15T01:27:18;101058.3281;;;;
44734;BME280;30462;52.446;-1.930;2023-02-15T01:28:17;101059.6953;;;;
44734;BME280;30462;52.446;-1.930;2023-02-15T01:29:18;101056.1211;;;;
44734;BME280;30462;52.446;-1.930;2023-02-15T01:30:17;101060.9648;;;;
44734;BME280;30462;52.446;-1.930;2023-02-15T01:31:18;101058.0742;;;;
44734;BME280;30462;52.446;-1.930;2023-02-15T01:32:18;101056.7148;;;;
44734;BME280;30462;52.446;-1.930;2023-02-15T01:33:17;101054.6914;;;;
44734;BME280;30462;52.446;-1.930;2023-02-15T01:34:18;101053.0313;;;;
44734;BME280;30462;52.446;-1.930;2023-02-15T01:35:18;101050.4219;;;;
44734;BME280;30462;52.446;-1.930;2023-02-15T01:36:18;101054.4648;;;;
44734;BME280;30462;52.446;-1.930;2023-02-15T01:37:18;101052.2344;;;;
44734;BME280;30462;52.446;-1.930;2023-02-15T01:38:18;101050.7266;;;;
44734;BME280;30462;52.446;-1.930;2023-02-15T01:39:18;101050.3516;;;;
44734;BME280;30462;52.446;-1.930;2023-02-15T01:40:18;101052.7383;;;;
44734;BME280;30462;52.446;-1.930;2023-02-15T01:41:18;101051.8906;;;;
44734;BME280;30462;52.446;-1.930;2023-02-15T01:43:18;101049.5547;;;;
44734;BME280;30462;52.446;-1.930;2023-02-15T01:45:20;101049.3477;;;;
44734;BME280;30462;52.446;-1.930;2023-02-15T01:46:19;101047.1172;;;;
44734;BME280;30462;52.446;-1.930;2023-02-15T01:47:20;101045.332;;;;
44734;BME280;30462;52.446;-1.930;2023-02-15T01:48:19;101044.7266;;;;
44734;BME280;30462;52.446;-1.930;2023-02-15T01:49:19;101043.0938;;;;
44734;BME280;30462;52.446;-1.930;2023-02-15T01:50:18;101042.2383;;;;
44734;BME280;30462;52.446;-1.930;2023-02-15T01:51:19;101040.8203;;;;
44734;BME280;30462;52.446;-1.930;2023-02-15T01:52:18;101036.8828;;;;
44734;BME280;30462;52.446;-1.930;2023-02-15T01:53:22;101036.3594;;;;
44734;BME280;30462;52.446;-1.930;2023-02-15T01:54:19;101036.2891;;;;
44734;BME280;30462;52.446;-1.930;2023-02-15T01:55:18;101041.1563;;;;
44734;BME280;30462;52.446;-1.930;2023-02-15T01:56:19;101035.0977;;;;
44734;BME280;30462;52.446;-1.930;2023-02-15T01:57:19;101036.1836;;;;
44734;BME280;30462;52.446;-1.930;2023-02-15T01:58:18;101036.9102;;;;
44734;BME280;30462;52.446;-1.930;2023-02-15T01:59:19;101037.0195;;;;
44734;BME280;30462;52.446;-1.930;2023-02-15T02:00:18;101034.6953;;;;
44734;BME280;30462;52.446;-1.930;2023-02-15T02:01:18;101036.5625;;;;
44734;BME280;30462;52.446;-1.930;2023-02-15T02:02:17;101036.9453;;;;
44734;BME280;30462;52.446;-1.930;2023-02-15T02:03:18;101030.0352;;;;
44734;BME280;30462;52.446;-1.930;2023-02-15T02:04:23;101031.293;;;;
44734;BME280;30462;52.446;-1.930;2023-02-15T02:05:18;101029.418;;;;
44734;BME280;30462;52.446;-1.930;2023-02-15T02:06:18;101032.0156;;;;
44734;BME280;30462;52.446;-1.930;2023-02-15T02:07:19;101030.9805;;;;
44734;BME280;30462;52.446;-1.930;2023-02-15T02:08:18;101029.7656;;;;
44734;BME280;30462;52.446;-1.930;2023-02-15T02:09:18;101026.7539;;;;
44734;BME280;30462;52.446;-1.930;2023-02-15T02:10:19;101024.5273;;;;
44734;BME280;30462;52.446;-1.930;2023-02-15T02:11:18;101022.8477;;;;
44734;BME280;30462;52.446;-1.930;2023-02-15T02:12:18;101015.7109;;;;
44734;BME280;30462;52.446;-1.930;2023-02-15T02:13:18;101019.3086;;;;
44734;BME280;30462;52.446;-1.930;2023-02-15T02:14:18;101019.293;;;;
44734;BME280;30462;52.446;-1.930;2023-02-15T02:15:18;101016.1094;;;;
44734;BME280;30462;52.446;-1.930;2023-02-15T02:16:20;101014.5742;;;;
44734;BME280;30462;52.446;-1.930;2023-02-15T02:17:21;101013.6133;;;;
44734;BME280;30462;52.446;-1.930;2023-02-15T02:33:20;100984.1523;;;;
44734;BME280;30462;52.446;-1.930;2023-02-15T02:34:19;100982.25;;;;
44734;BME280;30462;52.446;-1.930;2023-02-15T02:35:19;100982.168;;;;
44734;BME280;30462;52.446;-1.930;2023-02-15T02:36:20;100979.0938;;;;
44734;BME280;30462;52.446;-1.930;2023-02-15T02:37:19;100978.0117;;;;
44734;BME280;30462;52.446;-1.930;2023-02-15T02:38:23;100973.9023;;;;
44734;BME280;30462;52.446;-1.930;2023-02-15T02:40:20;100967.5938;;;;
44734;BME280;30462;52.446;-1.930;2023-02-15T02:41:20;100963.8789;;;;
44734;BME280;30462;52.446;-1.930;2023-02-15T02:42:23;100961.7969;;;;
44734;BME280;30462;52.446;-1.930;2023-02-15T02:43:20;100962.7539;;;;
44734;BME280;30462;52.446;-1.930;2023-02-15T02:44:22;100957.582;;;;
44734;BME280;30462;52.446;-1.930;2023-02-15T02:45:22;100961.3477;;;;
44734;BME280;30462;52.446;-1.930;2023-02-15T02:46:20;100956.1875;;;;
44734;BME280;30462;52.446;-1.930;2023-02-15T02:47:21;100953.582;;;;
44734;BME280;30462;52.446;-1.930;2023-02-15T02:48:19;100949.8359;;;;
44734;BME280;30462;52.446;-1.930;2023-02-15T02:50:21;100947.3555;;;;
44734;BME280;30462;52.446;-1.930;2023-02-15T02:51:18;100946.7773;;;;
44734;BME280;30462;52.446;-1.930;2023-02-15T02:53:18;100938.2891;;;;
44734;BME280;30462;52.446;-1.930;2023-02-15T02:54:18;100938.1484;;;;
44734;BME280;30462;52.446;-1.930;2023-02-15T02:55:19;100933.9688;;;;
44734;BME280;30462;52.446;-1.930;2023-02-15T02:56:22;100933.6484;;;;
44734;BME280;30462;52.446;-1.930;2023-02-15T02:57:18;100932.4688;;;;
44734;BME280;30462;52.446;-1.930;2023-02-15T02:58:19;100932.1523;;;;
44734;BME280;30462;52.446;-1.930;2023-02-15T02:59:19;100929.6211;;;;
44734;BME280;30462;52.446;-1.930;2023-02-15T03:00:19;100931.082;;;;
44734;BME280;30462;52.446;-1.930;2023-02-15T03:01:19;100927.2109;;;;
44734;BME280;30462;52.446;-1.930;2023-02-15T03:02:18;100924.8828;;;;
44734;BME280;30462;52.446;-1.930;2023-02-15T03:03:20;100919.8594;;;;
44734;BME280;30462;52.446;-1.930;2023-02-15T03:04:19;100923.2031;;;;
44734;BME280;30462;52.446;-1.930;2023-02-15T03:05:19;100918.0117;;;;
44734;BME280;30462;52.446;-1.930;2023-02-15T03:06:18;100923.8867;;;;
44734;BME280;30462;52.446;-1.930;2023-02-15T03:07:19;100928.4727;;;;
44734;BME280;30462;52.446;-1.930;2023-02-15T03:08:19;100924.2539;;;;
44734;BME280;30462;52.446;-1.930;2023-02-15T03:09:18;100920.3242;;;;
44734;BME280;30462;52.446;-1.930;2023-02-15T03:10:18;100921.7031;;;;
44734;BME280;30462;52.446;-1.930;2023-02-15T03:11:18;100915.1328;;;;
44734;BME280;30462;52.446;-1.930;2023-02-15T03:12:19;100918.2773;;;;
44734;BME280;30462;52.446;-1.930;2023-02-15T03:13:18;100914.6719;;;;
44734;BME280;30462;52.446;-1.930;2023-02-15T03:14:18;100909.7227;;;;
44734;BME280;30462;52.446;-1.930;2023-02-15T03:15:20;100905.9336;;;;
44734;BME280;30462;52.446;-1.930;2023-02-15T03:16:18;100903.3633;;;;
44734;BME280;30462;52.446;-1.930;2023-02-15T03:17:18;100899.8594;;;;
44734;BME280;30462;52.446;-1.930;2023-02-15T03:18:20;100894.9453;;;;
44734;BME280;30462;52.446;-1.930;2023-02-15T03:19:20;100889.1406;;;;
44734;BME280;30462;52.446;-1.930;2023-02-15T03:20:18;100887.5586;;;;
44734;BME280;30462;52.446;-1.930;2023-02-15T03:21:19;100887.0781;;;;
44734;BME280;30462;52.446;-1.930;2023-02-15T03:22:20;100883.1758;;;;
44734;BME280;30462;52.446;-1.930;2023-02-15T03:23:20;100884.1797;;;;
44734;BME280;30462;52.446;-1.930;2023-02-15T03:24:19;100881.6406;;;;
44734;BME280;30462;52.446;-1.930;2023-02-15T03:25:19;100885.3203;;;;
44734;BME280;30462;52.446;-1.930;2023-02-15T03:26:17;100883.6602;;;;
44734;BME280;30462;52.446;-1.930;2023-02-15T03:27:18;100883.8164;;;;
44734;BME280;30462;52.446;-1.930;2023-02-15T03:28:19;100883.4922;;;;
44734;BME280;30462;52.446;-1.930;2023-02-15T03:29:19;100880.6445;;;;
44734;BME280;30462;52.446;-1.930;2023-02-15T03:30:18;100880.1094;;;;
44734;BME280;30462;52.446;-1.930;2023-02-15T03:31:18;100878.9141;;;;
44734;BME280;30462;52.446;-1.930;2023-02-15T03:32:18;100879.2539;;;;
44734;BME280;30462;52.446;-1.930;2023-02-15T03:33:18;100875.1133;;;;
44734;BME280;30462;52.446;-1.930;2023-02-15T03:34:17;100875.8906;;;;
44734;BME280;30462;52.446;-1.930;2023-02-15T03:35:18;100875.6953;;;;
44734;BME280;30462;52.446;-1.930;2023-02-15T03:36:21;100870.9297;;;;
44734;BME280;30462;52.446;-1.930;2023-02-15T03:37:23;100872.3008;;;;
44734;BME280;30462;52.446;-1.930;2023-02-15T03:38:20;100867.582;;;;
44734;BME280;30462;52.446;-1.930;2023-02-15T03:39:18;100869.3984;;;;
44734;BME280;30462;52.446;-1.930;2023-02-15T03:40:22;100867.7266;;;;
44734;BME280;30462;52.446;-1.930;2023-02-15T03:41:18;100861.6367;;;;
44734;BME280;30462;52.446;-1.930;2023-02-15T03:42:20;100861.1484;;;;
44734;BME280;30462;52.446;-1.930;2023-02-15T03:43:21;100861.7266;;;;
44734;BME280;30462;52.446;-1.930;2023-02-15T03:44:20;100861.6563;;;;
44734;BME280;30462;52.446;-1.930;2023-02-15T03:45:20;100866.2578;;;;
44734;BME280;30462;52.446;-1.930;2023-02-15T03:46:20;100870.0625;;;;
44734;BME280;30462;52.446;-1.930;2023-02-15T03:47:19;100869.0625;;;;
44734;BME280;30462;52.446;-1.930;2023-02-15T03:48:18;100867.0664;;;;
44734;BME280;30462;52.446;-1.930;2023-02-15T03:49:20;100867.043;;;;
44734;BME280;30462;52.446;-1.930;2023-02-15T03:50:19;100867.4102;;;;
44734;BME280;30462;52.446;-1.930;2023-02-15T03:51:21;100861.9375;;;;
44734;BME280;30462;52.446;-1.930;2023-02-15T03:52:18;100870.5234;;;;
44734;BME280;30462;52.446;-1.930;2023-02-15T03:53:18;100869.6367;;;;
44734;BME280;30462;52.446;-1.930;2023-02-15T03:54:19;100867.0234;;;;
44734;BME280;30462;52.446;-1.930;2023-02-15T03:55:18;100862.3711;;;;
44734;BME280;30462;52.446;-1.930;2023-02-15T03:56:18;100862.1953;;;;
44734;BME280;30462;52.446;-1.930;2023-02-15T03:57:23;100859.8438;;;;
44734;BME280;30462;52.446;-1.930;2023-02-15T03:58:18;100855.5469;;;;
44734;BME280;30462;52.446;-1.930;2023-02-15T03:59:18;100852.5;;;;
44734;BME280;30462;52.446;-1.930;2023-02-15T04:00:22;100850.6797;;;;
44734;BME280;30462;52.446;-1.930;2023-02-15T04:01:24;100850.6797;;;;
44734;BME280;30462;52.446;-1.930;2023-02-15T04:02:21;100848.3672;;;;
44734;BME280;30462;52.446;-1.930;2023-02-15T04:03:23;100847.7188;;;;
44734;BME280;30462;52.446;-1.930;2023-02-15T04:04:19;100850.1875;;;;
44734;BME280;30462;52.446;-1.930;2023-02-15T04:05:18;100847.6055;;;;
44734;BME280;30462;52.446;-1.930;2023-02-15T04:06:18;100846.7891;;;;
44734;BME280;30462;52.446;-1.930;2023-02-15T04:07:18;100848.0859;;;;
44734;BME280;30462;52.446;-1.930;2023-02-15T04:08:18;100846.7852;;;;
44734;BME280;30462;52.446;-1.930;2023-02-15T04:09:18;100847.9609;;;;
44734;BME280;30462;52.446;-1.930;2023-02-15T04:10:18;100850.7031;;;;
44734;BME280;30462;52.446;-1.930;2023-02-15T04:11:18;100847.25;;;;
44734;BME280;30462;52.446;-1.930;2023-02-15T04:12:18;100844.7266;;;;
44734;BME280;30462;52.446;-1.930;2023-02-15T04:13:18;100841.6953;;;;
44734;BME280;30462;52.446;-1.930;2023-02-15T04:14:18;100840.3164;;;;
44734;BME280;30462;52.446;-1.930;2023-02-15T04:15:18;100837.957;;;;
44734;BME280;30462;52.446;-1.930;2023-02-15T04:16:18;100836.543;;;;
44734;BME280;30462;52.446;-1.930;2023-02-15T04:17:18;100835.4844;;;;
44734;BME280;30462;52.446;-1.930;2023-02-15T04:18:18;100830.3086;;;;
44734;BME280;30462;52.446;-1.930;2023-02-15T04:19:18;100832.0117;;;;
44734;BME280;30462;52.446;-1.930;2023-02-15T04:20:17;100829.6367;;;;
44734;BME280;30462;52.446;-1.930;2023-02-15T04:21:19;100827.7617;;;;
44734;BME280;30462;52.446;-1.930;2023-02-15T04:22:18;100827.6914;;;;
44734;BME280;30462;52.446;-1.930;2023-02-15T04:23:18;100825.4336;;;;
44734;BME280;30462;52.446;-1.930;2023-02-15T04:24:18;100824.0938;;;;
44734;BME280;30462;52.446;-1.930;2023-02-15T04:25:18;100821.543;;;;
44734;BME280;30462;52.446;-1.930;2023-02-15T04:26:18;100822.3906;;;;
44734;BME280;30462;52.446;-1.930;2023-02-15T04:27:18;100818.5859;;;;
44734;BME280;30462;52.446;-1.930;2023-02-15T04:28:18;100818.8984;;;;
44734;BME280;30462;52.446;-1.930;2023-02-15T04:29:18;100821.4141;;;;
44734;BME280;30462;52.446;-1.930;2023-02-15T04:30:18;100823.5352;;;;
44734;BME280;30462;52.446;-1.930;2023-02-15T04:31:18;100819.9102;;;;
44734;BME280;30462;52.446;-1.930;2023-02-15T04:32:18;100818.7031;;;;
44734;BME280;30462;52.446;-1.930;2023-02-15T04:33:18;100818.125;;;;
44734;BME280;30462;52.446;-1.930;2023-02-15T04:34:18;100813.7344;;;;
44734;BME280;30462;52.446;-1.930;2023-02-15T04:35:18;100815.0547;;;;
44734;BME280;30462;52.446;-1.930;2023-02-15T04:36:18;100815.5039;;;;
44734;BME280;30462;52.446;-1.930;2023-02-15T04:37:18;100817.8906;;;;
44734;BME280;30462;52.446;-1.930;2023-02-15T04:38:18;100815.1016;;;;
44734;BME280;30462;52.446;-1.930;2023-02-15T04:39:18;100812.625;;;;
44734;BME280;30462;52.446;-1.930;2023-02-15T04:40:18;100812.043;;;;
44734;BME280;30462;52.446;-1.930;2023-02-15T04:41:18;100806.1992;;;;
44734;BME280;30462;52.446;-1.930;2023-02-15T04:42:18;100804.1406;;;;
44734;BME280;30462;52.446;-1.930;2023-02-15T04:43:19;100801.9844;;;;
44734;BME280;30462;52.446;-1.930;2023-02-15T04:44:17;100807.9453;;;;
44734;BME280;30462;52.446;-1.930;2023-02-15T04:45:18;100805.9727;;;;
44734;BME280;30462;52.446;-1.930;2023-02-15T04:46:18;100804.793;;;;
44734;BME280;30462;52.446;-1.930;2023-02-15T04:47:18;100800.793;;;;
44734;BME280;30462;52.446;-1.930;2023-02-15T04:48:17;100799.6367;;;;
44734;BME280;30462;52.446;-1.930;2023-02-15T04:49:18;100802.1523;;;;
44734;BME280;30462;52.446;-1.930;2023-02-15T04:50:18;100796.9336;;;;
44734;BME280;30462;52.446;-1.930;2023-02-15T04:51:18;100802.1523;;;;
44734;BME280;30462;52.446;-1.930;2023-02-15T04:52:18;100801.7422;;;;
44734;BME280;30462;52.446;-1.930;2023-02-15T04:53:18;100803.1016;;;;
44734;BME280;30462;52.446;-1.930;2023-02-15T04:54:18;100801.0781;;;;
44734;BME280;30462;52.446;-1.930;2023-02-15T04:55:17;100798.3984;;;;
44734;BME280;30462;52.446;-1.930;2023-02-15T04:56:19;100794.9023;;;;
44734;BME280;30462;52.446;-1.930;2023-02-15T04:57:18;100793.3555;;;;
44734;BME280;30462;52.446;-1.930;2023-02-15T04:58:18;100794.3164;;;;
44734;BME280;30462;52.446;-1.930;2023-02-15T04:59:17;100793.4727;;;;
44734;BME280;30462;52.446;-1.930;2023-02-15T05:00:18;100794.3789;;;;
44734;BME280;30462;52.446;-1.930;2023-02-15T05:01:18;100793.7109;;;;
44734;BME280;30462;52.446;-1.930;2023-02-15T05:02:18;100790.9492;;;;
44734;BME280;30462;52.446;-1.930;2023-02-15T05:03:18;100786.5625;;;;
44734;BME280;30462;52.446;-1.930;2023-02-15T05:04:18;100788.6484;;;;
44734;BME280;30462;52.446;-1.930;2023-02-15T05:05:18;100789.0313;;;;
44734;BME280;30462;52.446;-1.930;2023-02-15T05:06:18;100787.2891;;;;
44734;BME280;30462;52.446;-1.930;2023-02-15T05:07:18;100787.0742;;;;
44734;BME280;30462;52.446;-1.930;2023-02-15T05:08:18;100788.6797;;;;
44734;BME280;30462;52.446;-1.930;2023-02-15T05:09:18;100788.0469;;;;
44734;BME280;30462;52.446;-1.930;2023-02-15T05:10:18;100789.957;;;;
44734;BME280;30462;52.446;-1.930;2023-02-15T05:11:18;100788.7539;;;;
44734;BME280;30462;52.446;-1.930;2023-02-15T05:12:18;100789.2344;;;;
44734;BME280;30462;52.446;-1.930;2023-02-15T05:13:18;100791.0234;;;;
44734;BME280;30462;52.446;-1.930;2023-02-15T05:14:17;100788.7695;;;;
44734;BME280;30462;52.446;-1.930;2023-02-15T05:15:17;100785.793;;;;
44734;BME280;30462;52.446;-1.930;2023-02-15T05:16:18;100783.7305;;;;
44734;BME280;30462;52.446;-1.930;2023-02-15T05:17:18;100784.9258;;;;
44734;BME280;30462;52.446;-1.930;2023-02-15T05:18:18;100788.1563;;;;
44734;BME280;30462;52.446;-1.930;2023-02-15T05:19:18;100786.1133;;;;
44734;BME280;30462;52.446;-1.930;2023-02-15T05:20:18;100783.2227;;;;
44734;BME280;30462;52.446;-1.930;2023-02-15T05:21:17;100787.2969;;;;
44734;BME280;30462;52.446;-1.930;2023-02-15T05:22:18;100788.7852;;;;
44734;BME280;30462;52.446;-1.930;2023-02-15T05:23:18;100784.5898;;;;
44734;BME280;30462;52.446;-1.930;2023-02-15T05:24:17;100784.2227;;;;
44734;BME280;30462;52.446;-1.930;2023-02-15T05:25:18;100784.4375;;;;
44734;BME280;30462;52.446;-1.930;2023-02-15T05:26:19;100781.1797;;;;
44734;BME280;30462;52.446;-1.930;2023-02-15T05:27:18;100782.4453;;;;
44734;BME280;30462;52.446;-1.930;2023-02-15T05:28:18;100779.5078;;;;
44734;BME280;30462;52.446;-1.930;2023-02-15T05:29:18;100774.793;;;;
44734;BME280;30462;52.446;-1.930;2023-02-15T05:30:18;100767.0156;;;;
44734;BME280;30462;52.446;-1.930;2023-02-15T05:31:18;100768.793;;;;
44734;BME280;30462;52.446;-1.930;2023-02-15T05:32:18;100770.2539;;;;
44734;BME280;30462;52.446;-1.930;2023-02-15T05:33:18;100770.1406;;;;
44734;BME280;30462;52.446;-1.930;2023-02-15T05:34:18;100770.6602;;;;
44734;BME280;30462;52.446;-1.930;2023-02-15T05:35:18;100768.9102;;;;
44734;BME280;30462;52.446;-1.930;2023-02-15T05:36:18;100769.2227;;;;
44734;BME280;30462;52.446;-1.930;2023-02-15T05:37:18;100762.5;;;;
44734;BME280;30462;52.446;-1.930;2023-02-15T05:38:18;100759.0898;;;;
44734;BME280;30462;52.446;-1.930;2023-02-15T05:39:18;100756.3789;;;;
44734;BME280;30462;52.446;-1.930;2023-02-15T05:40:18;100755.1094;;;;
44734;BME280;30462;52.446;-1.930;2023-02-15T05:41:18;100754.8828;;;;
44734;BME280;30462;52.446;-1.930;2023-02-15T05:42:18;100757.5742;;;;
44734;BME280;30462;52.446;-1.930;2023-02-15T05:43:19;100758.4883;;;;
44734;BME280;30462;52.446;-1.930;2023-02-15T05:44:18;100757.5586;;;;
44734;BME280;30462;52.446;-1.930;2023-02-15T05:45:18;100758.6328;;;;
44734;BME280;30462;52.446;-1.930;2023-02-15T05:46:18;100757.2695;;;;
44734;BME280;30462;52.446;-1.930;2023-02-15T05:47:18;100756.3633;;;;
44734;BME280;30462;52.446;-1.930;2023-02-15T05:48:18;100758.7969;;;;
44734;BME280;30462;52.446;-1.930;2023-02-15T05:49:18;100756.2773;;;;
44734;BME280;30462;52.446;-1.930;2023-02-15T05:50:18;100759.9141;;;;
44734;BME280;30462;52.446;-1.930;2023-02-15T05:51:18;100765.2695;;;;
44734;BME280;30462;52.446;-1.930;2023-02-15T05:52:18;100767.9492;;;;
44734;BME280;30462;52.446;-1.930;2023-02-15T05:53:17;100770.0742;;;;
44734;BME280;30462;52.446;-1.930;2023-02-15T05:54:18;100767.5898;;;;
44734;BME280;30462;52.446;-1.930;2023-02-15T05:55:18;100769.9258;;;;
44734;BME280;30462;52.446;-1.930;2023-02-15T05:56:18;100774.168;;;;
44734;BME280;30462;52.446;-1.930;2023-02-15T05:57:18;100776.8906;;;;
44734;BME280;30462;52.446;-1.930;2023-02-15T05:58:18;100776.0742;;;;
44734;BME280;30462;52.446;-1.930;2023-02-15T05:59:17;100779.0703;;;;
44734;BME280;30462;52.446;-1.930;2023-02-15T06:00:19;100776.8281;;;;
44734;BME280;30462;52.446;-1.930;2023-02-15T06:01:18;100776.5078;;;;
44734;BME280;30462;52.446;-1.930;2023-02-15T06:02:18;100775.25;;;;
44734;BME280;30462;52.446;-1.930;2023-02-15T06:03:18;100771.1055;;;;
44734;BME280;30462;52.446;-1.930;2023-02-15T06:04:17;100773.9531;;;;
44734;BME280;30462;52.446;-1.930;2023-02-15T06:05:18;100771.5547;;;;